sensor_id;sensor_type;location;lat;lon;timestamp;P1;durP1;ratioP1;P2;durP2;ratioP2
63817;SDS011;53093;55.092;73.476;2022-08-01T00:01:59;18.85;;;16.90;;
63817;SDS011;53093;55.092;73.476;2022-08-01T00:04:26;18.70;;;16.77;;
63817;SDS011;53093;55.092;73.476;2022-08-01T00:06:53;20.45;;;18.35;;
63817;SDS011;53093;55.092;73.476;2022-08-01T00:09:20;24.55;;;22.05;;
63817;SDS011;53093;55.092;73.476;2022-08-01T00:11:47;26.85;;;24.25;;
63817;SDS011;53093;55.092;73.476;2022-08-01T00:14:14;24.42;;;22.02;;
63817;SDS011;53093;55.092;73.476;2022-08-01T00:16:41;25.40;;;22.75;;
63817;SDS011;53093;55.092;73.476;2022-08-01T00:19:08;28.60;;;25.90;;
63817;SDS011;53093;55.092;73.476;2022-08-01T00:21:43;20.27;;;18.27;;
63817;SDS011;53093;55.092;73.476;2022-08-01T00:24:10;20.60;;;18.60;;
63817;SDS011;53093;55.092;73.476;2022-08-01T00:26:37;21.92;;;19.65;;
63817;SDS011;53093;55.092;73.476;2022-08-01T00:29:07;18.90;;;16.95;;
63817;SDS011;53093;55.092;73.476;2022-08-01T00:31:34;18.42;;;16.52;;
63817;SDS011;53093;55.092;73.476;2022-08-01T00:34:01;18.75;;;16.75;;
63817;SDS011;53093;55.092;73.476;2022-08-01T00:36:28;18.38;;;16.65;;
63817;SDS011;53093;55.092;73.476;2022-08-01T00:38:56;18.40;;;16.50;;
63817;SDS011;53093;55.092;73.476;2022-08-01T00:41:23;18.45;;;16.67;;
63817;SDS011;53093;55.092;73.476;2022-08-01T00:43:50;18.80;;;16.88;;
63817;SDS011;53093;55.092;73.476;2022-08-01T00:46:17;20.52;;;18.48;;
63817;SDS011;53093;55.092;73.476;2022-08-01T00:48:44;21.48;;;19.35;;
63817;SDS011;53093;55.092;73.476;2022-08-01T00:51:11;21.52;;;19.45;;
63817;SDS011;53093;55.092;73.476;2022-08-01T00:53:39;18.60;;;16.77;;
63817;SDS011;53093;55.092;73.476;2022-08-01T00:56:06;18.45;;;16.65;;
63817;SDS011;53093;55.092;73.476;2022-08-01T00:58:33;18.48;;;16.70;;
63817;SDS011;53093;55.092;73.476;2022-08-01T01:01:00;17.73;;;16.02;;
63817;SDS011;53093;55.092;73.476;2022-08-01T01:03:27;18.00;;;16.27;;
63817;SDS011;53093;55.092;73.476;2022-08-01T01:08:44;17.70;;;15.90;;
63817;SDS011;53093;55.092;73.476;2022-08-01T01:11:15;17.65;;;15.98;;
63817;SDS011;53093;55.092;73.476;2022-08-01T01:13:57;17.15;;;15.55;;
63817;SDS011;53093;55.092;73.476;2022-08-01T01:16:26;17.00;;;15.40;;
63817;SDS011;53093;55.092;73.476;2022-08-01T01:18:55;17.13;;;15.48;;
63817;SDS011;53093;55.092;73.476;2022-08-01T01:29:17;17.83;;;16.13;;
63817;SDS011;53093;55.092;73.476;2022-08-01T01:32:02;16.70;;;15.23;;
63817;SDS011;53093;55.092;73.476;2022-08-01T01:34:31;16.38;;;14.88;;
63817;SDS011;53093;55.092;73.476;2022-08-01T01:37:06;17.60;;;15.93;;
63817;SDS011;53093;55.092;73.476;2022-08-01T01:39:34;17.13;;;15.52;;
63817;SDS011;53093;55.092;73.476;2022-08-01T01:42:02;16.90;;;15.27;;
63817;SDS011;53093;55.092;73.476;2022-08-01T01:44:30;16.95;;;15.30;;
63817;SDS011;53093;55.092;73.476;2022-08-01T01:46:57;17.10;;;15.32;;
63817;SDS011;53093;55.092;73.476;2022-08-01T01:49:26;53.40;;;16.55;;
63817;SDS011;53093;55.092;73.476;2022-08-01T01:51:55;16.83;;;15.10;;
63817;SDS011;53093;55.092;73.476;2022-08-01T01:54:23;16.63;;;15.05;;
63817;SDS011;53093;55.092;73.476;2022-08-01T01:56:50;17.20;;;15.40;;
63817;SDS011;53093;55.092;73.476;2022-08-01T01:59:29;16.38;;;14.98;;
63817;SDS011;53093;55.092;73.476;2022-08-01T02:01:58;17.35;;;15.73;;
63817;SDS011;53093;55.092;73.476;2022-08-01T02:04:37;17.08;;;15.35;;
63817;SDS011;53093;55.092;73.476;2022-08-01T02:07:05;21.40;;;15.10;;
63817;SDS011;53093;55.092;73.476;2022-08-01T02:09:33;18.83;;;17.02;;
63817;SDS011;53093;55.092;73.476;2022-08-01T02:12:00;17.20;;;15.60;;
63817;SDS011;53093;55.092;73.476;2022-08-01T02:14:37;17.23;;;15.70;;
63817;SDS011;53093;55.092;73.476;2022-08-01T02:17:06;17.00;;;15.20;;
63817;SDS011;53093;55.092;73.476;2022-08-01T02:19:35;17.30;;;15.75;;
63817;SDS011;53093;55.092;73.476;2022-08-01T02:22:07;17.27;;;15.60;;
63817;SDS011;53093;55.092;73.476;2022-08-01T02:24:35;17.75;;;15.93;;
63817;SDS011;53093;55.092;73.476;2022-08-01T02:27:10;16.80;;;15.20;;
63817;SDS011;53093;55.092;73.476;2022-08-01T02:29:46;17.00;;;15.45;;
63817;SDS011;53093;55.092;73.476;2022-08-01T02:32:19;23.83;;;16.27;;
63817;SDS011;53093;55.092;73.476;2022-08-01T02:34:57;17.38;;;15.77;;
63817;SDS011;53093;55.092;73.476;2022-08-01T02:37:26;17.17;;;15.43;;
63817;SDS011;53093;55.092;73.476;2022-08-01T02:39:54;17.35;;;15.63;;
63817;SDS011;53093;55.092;73.476;2022-08-01T02:42:31;17.60;;;15.90;;
63817;SDS011;53093;55.092;73.476;2022-08-01T02:44:58;17.42;;;15.82;;
63817;SDS011;53093;55.092;73.476;2022-08-01T02:47:26;16.92;;;15.23;;
63817;SDS011;53093;55.092;73.476;2022-08-01T02:49:54;17.50;;;15.88;;
63817;SDS011;53093;55.092;73.476;2022-08-01T02:52:23;19.83;;;15.95;;
63817;SDS011;53093;55.092;73.476;2022-08-01T02:54:51;17.17;;;15.73;;
63817;SDS011;53093;55.092;73.476;2022-08-01T02:57:20;17.02;;;15.52;;
63817;SDS011;53093;55.092;73.476;2022-08-01T02:59:47;17.17;;;15.38;;
63817;SDS011;53093;55.092;73.476;2022-08-01T03:02:16;18.27;;;15.20;;
63817;SDS011;53093;55.092;73.476;2022-08-01T03:04:43;16.63;;;14.95;;
63817;SDS011;53093;55.092;73.476;2022-08-01T03:07:11;17.38;;;15.77;;
63817;SDS011;53093;55.092;73.476;2022-08-01T03:09:40;19.30;;;17.52;;
63817;SDS011;53093;55.092;73.476;2022-08-01T03:12:17;18.85;;;17.02;;
63817;SDS011;53093;55.092;73.476;2022-08-01T03:14:46;19.52;;;17.67;;
63817;SDS011;53093;55.092;73.476;2022-08-01T03:17:14;19.20;;;17.40;;
63817;SDS011;53093;55.092;73.476;2022-08-01T03:19:42;18.45;;;16.85;;
63817;SDS011;53093;55.092;73.476;2022-08-01T03:22:11;19.50;;;16.98;;
63817;SDS011;53093;55.092;73.476;2022-08-01T03:24:50;20.15;;;16.80;;
63817;SDS011;53093;55.092;73.476;2022-08-01T03:27:18;19.40;;;17.60;;
63817;SDS011;53093;55.092;73.476;2022-08-01T03:29:46;18.70;;;17.00;;
63817;SDS011;53093;55.092;73.476;2022-08-01T03:32:14;19.65;;;17.65;;
63817;SDS011;53093;55.092;73.476;2022-08-01T03:34:41;19.77;;;18.08;;
63817;SDS011;53093;55.092;73.476;2022-08-01T03:37:11;20.55;;;18.55;;
63817;SDS011;53093;55.092;73.476;2022-08-01T03:39:58;21.15;;;19.08;;
63817;SDS011;53093;55.092;73.476;2022-08-01T03:45:27;22.08;;;19.85;;
63817;SDS011;53093;55.092;73.476;2022-08-01T03:48:00;21.02;;;18.92;;
63817;SDS011;53093;55.092;73.476;2022-08-01T03:50:32;21.85;;;19.85;;
63817;SDS011;53093;55.092;73.476;2022-08-01T03:53:01;29.27;;;20.77;;
63817;SDS011;53093;55.092;73.476;2022-08-01T03:55:29;22.85;;;20.45;;
63817;SDS011;53093;55.092;73.476;2022-08-01T03:58:07;19.85;;;17.85;;
63817;SDS011;53093;55.092;73.476;2022-08-01T04:00:38;20.80;;;18.80;;
63817;SDS011;53093;55.092;73.476;2022-08-01T04:03:12;22.05;;;19.92;;
63817;SDS011;53093;55.092;73.476;2022-08-01T04:05:42;21.92;;;19.73;;
63817;SDS011;53093;55.092;73.476;2022-08-01T04:08:09;22.38;;;20.27;;
63817;SDS011;53093;55.092;73.476;2022-08-01T04:10:36;22.75;;;20.60;;
63817;SDS011;53093;55.092;73.476;2022-08-01T04:13:03;39.40;;;21.35;;
63817;SDS011;53093;55.092;73.476;2022-08-01T04:15:30;20.67;;;18.73;;
63817;SDS011;53093;55.092;73.476;2022-08-01T04:17:58;20.98;;;18.90;;
63817;SDS011;53093;55.092;73.476;2022-08-01T04:20:25;21.05;;;19.15;;
63817;SDS011;53093;55.092;73.476;2022-08-01T04:22:52;20.25;;;18.40;;
63817;SDS011;53093;55.092;73.476;2022-08-01T04:25:21;21.10;;;18.77;;
63817;SDS011;53093;55.092;73.476;2022-08-01T04:27:53;20.75;;;18.85;;
63817;SDS011;53093;55.092;73.476;2022-08-01T04:30:22;21.83;;;19.73;;
63817;SDS011;53093;55.092;73.476;2022-08-01T04:32:51;19.92;;;17.90;;
63817;SDS011;53093;55.092;73.476;2022-08-01T04:35:19;21.02;;;19.10;;
63817;SDS011;53093;55.092;73.476;2022-08-01T04:37:46;21.17;;;19.17;;
63817;SDS011;53093;55.092;73.476;2022-08-01T04:40:20;20.63;;;18.48;;
63817;SDS011;53093;55.092;73.476;2022-08-01T04:42:55;25.50;;;19.20;;
63817;SDS011;53093;55.092;73.476;2022-08-01T04:45:22;20.83;;;18.67;;
63817;SDS011;53093;55.092;73.476;2022-08-01T04:47:50;20.30;;;18.42;;
63817;SDS011;53093;55.092;73.476;2022-08-01T04:50:17;21.42;;;18.10;;
63817;SDS011;53093;55.092;73.476;2022-08-01T04:52:44;22.45;;;18.35;;
63817;SDS011;53093;55.092;73.476;2022-08-01T04:55:11;19.50;;;17.42;;
63817;SDS011;53093;55.092;73.476;2022-08-01T04:57:42;19.90;;;17.67;;
63817;SDS011;53093;55.092;73.476;2022-08-01T05:00:10;28.90;;;18.02;;
63817;SDS011;53093;55.092;73.476;2022-08-01T05:02:38;23.30;;;18.08;;
63817;SDS011;53093;55.092;73.476;2022-08-01T05:05:05;21.48;;;19.27;;
63817;SDS011;53093;55.092;73.476;2022-08-01T05:07:32;34.92;;;21.08;;
63817;SDS011;53093;55.092;73.476;2022-08-01T05:09:59;24.40;;;21.85;;
63817;SDS011;53093;55.092;73.476;2022-08-01T05:12:27;23.30;;;21.17;;
63817;SDS011;53093;55.092;73.476;2022-08-01T05:14:55;25.20;;;20.98;;
63817;SDS011;53093;55.092;73.476;2022-08-01T05:17:22;23.33;;;20.05;;
63817;SDS011;53093;55.092;73.476;2022-08-01T05:19:49;23.02;;;20.63;;
63817;SDS011;53093;55.092;73.476;2022-08-01T05:22:16;20.98;;;18.88;;
63817;SDS011;53093;55.092;73.476;2022-08-01T05:24:43;20.40;;;17.98;;
63817;SDS011;53093;55.092;73.476;2022-08-01T05:27:10;19.10;;;17.17;;
63817;SDS011;53093;55.092;73.476;2022-08-01T05:29:37;19.23;;;17.25;;
63817;SDS011;53093;55.092;73.476;2022-08-01T05:32:04;22.08;;;17.25;;
63817;SDS011;53093;55.092;73.476;2022-08-01T05:34:31;23.48;;;16.60;;
63817;SDS011;53093;55.092;73.476;2022-08-01T05:36:58;16.65;;;14.93;;
63817;SDS011;53093;55.092;73.476;2022-08-01T05:39:26;17.20;;;15.40;;
63817;SDS011;53093;55.092;73.476;2022-08-01T05:41:53;17.13;;;15.35;;
63817;SDS011;53093;55.092;73.476;2022-08-01T05:44:20;18.33;;;15.80;;
63817;SDS011;53093;55.092;73.476;2022-08-01T05:46:47;17.73;;;15.48;;
63817;SDS011;53093;55.092;73.476;2022-08-01T05:49:14;16.65;;;14.98;;
63817;SDS011;53093;55.092;73.476;2022-08-01T05:51:41;17.17;;;15.40;;
63817;SDS011;53093;55.092;73.476;2022-08-01T05:54:08;22.13;;;16.67;;
63817;SDS011;53093;55.092;73.476;2022-08-01T05:56:35;19.35;;;17.38;;
63817;SDS011;53093;55.092;73.476;2022-08-01T05:59:02;19.35;;;17.27;;
63817;SDS011;53093;55.092;73.476;2022-08-01T06:01:29;19.33;;;17.35;;
63817;SDS011;53093;55.092;73.476;2022-08-01T06:03:56;19.33;;;17.40;;
63817;SDS011;53093;55.092;73.476;2022-08-01T06:06:23;19.25;;;17.35;;
63817;SDS011;53093;55.092;73.476;2022-08-01T06:08:50;18.80;;;17.00;;
63817;SDS011;53093;55.092;73.476;2022-08-01T06:11:18;19.05;;;17.15;;
63817;SDS011;53093;55.092;73.476;2022-08-01T06:13:45;18.38;;;16.67;;
63817;SDS011;53093;55.092;73.476;2022-08-01T06:16:12;18.75;;;16.88;;
63817;SDS011;53093;55.092;73.476;2022-08-01T06:18:39;19.45;;;16.42;;
63817;SDS011;53093;55.092;73.476;2022-08-01T06:21:06;18.55;;;16.77;;
63817;SDS011;53093;55.092;73.476;2022-08-01T06:23:33;18.52;;;16.83;;
63817;SDS011;53093;55.092;73.476;2022-08-01T06:26:00;19.50;;;17.48;;
63817;SDS011;53093;55.092;73.476;2022-08-01T06:28:27;18.90;;;16.83;;
63817;SDS011;53093;55.092;73.476;2022-08-01T06:30:54;16.67;;;14.95;;
63817;SDS011;53093;55.092;73.476;2022-08-01T06:33:21;16.90;;;15.15;;
63817;SDS011;53093;55.092;73.476;2022-08-01T06:35:48;15.43;;;13.82;;
63817;SDS011;53093;55.092;73.476;2022-08-01T06:38:15;15.93;;;14.45;;
63817;SDS011;53093;55.092;73.476;2022-08-01T06:40:42;17.73;;;14.80;;
63817;SDS011;53093;55.092;73.476;2022-08-01T06:43:09;16.80;;;14.65;;
63817;SDS011;53093;55.092;73.476;2022-08-01T06:45:38;15.38;;;13.98;;
63817;SDS011;53093;55.092;73.476;2022-08-01T06:48:05;16.15;;;13.70;;
63817;SDS011;53093;55.092;73.476;2022-08-01T06:50:32;15.65;;;14.10;;
63817;SDS011;53093;55.092;73.476;2022-08-01T06:53:02;14.85;;;13.45;;
63817;SDS011;53093;55.092;73.476;2022-08-01T06:55:29;17.08;;;13.18;;
63817;SDS011;53093;55.092;73.476;2022-08-01T06:57:56;46.38;;;15.30;;
63817;SDS011;53093;55.092;73.476;2022-08-01T07:00:24;15.25;;;13.23;;
63817;SDS011;53093;55.092;73.476;2022-08-01T07:02:52;14.32;;;12.93;;
63817;SDS011;53093;55.092;73.476;2022-08-01T07:05:19;14.90;;;13.32;;
63817;SDS011;53093;55.092;73.476;2022-08-01T07:07:46;14.98;;;12.43;;
63817;SDS011;53093;55.092;73.476;2022-08-01T07:10:14;13.55;;;12.15;;
63817;SDS011;53093;55.092;73.476;2022-08-01T07:12:40;13.68;;;12.20;;
63817;SDS011;53093;55.092;73.476;2022-08-01T07:15:08;13.60;;;12.20;;
63817;SDS011;53093;55.092;73.476;2022-08-01T07:17:37;16.23;;;14.57;;
63817;SDS011;53093;55.092;73.476;2022-08-01T07:20:05;14.52;;;13.02;;
63817;SDS011;53093;55.092;73.476;2022-08-01T07:22:32;13.15;;;11.82;;
63817;SDS011;53093;55.092;73.476;2022-08-01T07:24:59;14.75;;;11.60;;
63817;SDS011;53093;55.092;73.476;2022-08-01T07:27:35;13.43;;;11.68;;
63817;SDS011;53093;55.092;73.476;2022-08-01T07:30:03;12.82;;;11.63;;
63817;SDS011;53093;55.092;73.476;2022-08-01T07:32:31;12.80;;;11.27;;
63817;SDS011;53093;55.092;73.476;2022-08-01T07:34:58;11.88;;;10.85;;
63817;SDS011;53093;55.092;73.476;2022-08-01T07:37:25;13.70;;;11.25;;
63817;SDS011;53093;55.092;73.476;2022-08-01T07:40:03;11.73;;;10.52;;
63817;SDS011;53093;55.092;73.476;2022-08-01T07:42:31;12.30;;;10.40;;
63817;SDS011;53093;55.092;73.476;2022-08-01T07:44:58;21.73;;;10.73;;
63817;SDS011;53093;55.092;73.476;2022-08-01T07:47:25;14.35;;;10.30;;
63817;SDS011;53093;55.092;73.476;2022-08-01T07:49:58;11.00;;;9.90;;
63817;SDS011;53093;55.092;73.476;2022-08-01T07:52:35;14.95;;;10.13;;
63817;SDS011;53093;55.092;73.476;2022-08-01T07:55:08;11.68;;;10.57;;
63817;SDS011;53093;55.092;73.476;2022-08-01T07:57:35;10.48;;;9.38;;
63817;SDS011;53093;55.092;73.476;2022-08-01T08:00:03;11.77;;;9.20;;
63817;SDS011;53093;55.092;73.476;2022-08-01T08:02:41;15.23;;;8.15;;
63817;SDS011;53093;55.092;73.476;2022-08-01T08:05:08;14.90;;;8.02;;
63817;SDS011;53093;55.092;73.476;2022-08-01T08:07:35;14.88;;;6.75;;
63817;SDS011;53093;55.092;73.476;2022-08-01T08:10:03;7.50;;;6.00;;
63817;SDS011;53093;55.092;73.476;2022-08-01T08:12:30;13.48;;;4.72;;
63817;SDS011;53093;55.092;73.476;2022-08-01T08:14:57;8.65;;;4.57;;
63817;SDS011;53093;55.092;73.476;2022-08-01T08:17:28;5.38;;;4.20;;
63817;SDS011;53093;55.092;73.476;2022-08-01T08:19:58;9.38;;;4.60;;
63817;SDS011;53093;55.092;73.476;2022-08-01T08:22:25;9.90;;;5.00;;
63817;SDS011;53093;55.092;73.476;2022-08-01T08:24:52;5.43;;;4.00;;
63817;SDS011;53093;55.092;73.476;2022-08-01T08:27:19;8.57;;;6.03;;
63817;SDS011;53093;55.092;73.476;2022-08-01T08:29:46;8.88;;;4.25;;
63817;SDS011;53093;55.092;73.476;2022-08-01T08:32:13;4.65;;;3.97;;
63817;SDS011;53093;55.092;73.476;2022-08-01T08:34:40;5.10;;;3.78;;
63817;SDS011;53093;55.092;73.476;2022-08-01T08:37:07;7.35;;;4.20;;
63817;SDS011;53093;55.092;73.476;2022-08-01T08:39:34;6.07;;;4.15;;
63817;SDS011;53093;55.092;73.476;2022-08-01T08:42:04;4.80;;;4.30;;
63817;SDS011;53093;55.092;73.476;2022-08-01T08:44:32;5.72;;;3.55;;
63817;SDS011;53093;55.092;73.476;2022-08-01T08:47:00;5.20;;;3.55;;
63817;SDS011;53093;55.092;73.476;2022-08-01T08:49:28;4.22;;;2.90;;
63817;SDS011;53093;55.092;73.476;2022-08-01T08:51:58;6.35;;;3.60;;
63817;SDS011;53093;55.092;73.476;2022-08-01T08:54:25;5.65;;;4.60;;
63817;SDS011;53093;55.092;73.476;2022-08-01T08:56:53;4.97;;;3.85;;
63817;SDS011;53093;55.092;73.476;2022-08-01T08:59:21;4.18;;;3.65;;
63817;SDS011;53093;55.092;73.476;2022-08-01T09:01:48;3.10;;;2.90;;
63817;SDS011;53093;55.092;73.476;2022-08-01T09:04:17;5.35;;;3.00;;
63817;SDS011;53093;55.092;73.476;2022-08-01T09:06:44;4.70;;;3.90;;
63817;SDS011;53093;55.092;73.476;2022-08-01T09:09:11;4.95;;;3.22;;
63817;SDS011;53093;55.092;73.476;2022-08-01T09:11:38;2.75;;;2.55;;
63817;SDS011;53093;55.092;73.476;2022-08-01T09:14:12;7.45;;;3.03;;
63817;SDS011;53093;55.092;73.476;2022-08-01T09:16:43;5.03;;;2.63;;
63817;SDS011;53093;55.092;73.476;2022-08-01T09:19:12;5.05;;;2.63;;
63817;SDS011;53093;55.092;73.476;2022-08-01T09:21:40;4.20;;;2.70;;
63817;SDS011;53093;55.092;73.476;2022-08-01T09:24:14;2.53;;;2.25;;
63817;SDS011;53093;55.092;73.476;2022-08-01T09:26:41;6.57;;;2.55;;
63817;SDS011;53093;55.092;73.476;2022-08-01T09:29:23;2.80;;;2.03;;
63817;SDS011;53093;55.092;73.476;2022-08-01T09:31:58;3.03;;;2.35;;
63817;SDS011;53093;55.092;73.476;2022-08-01T09:34:26;2.83;;;2.10;;
63817;SDS011;53093;55.092;73.476;2022-08-01T09:36:55;5.90;;;2.20;;
63817;SDS011;53093;55.092;73.476;2022-08-01T09:39:24;2.13;;;1.90;;
63817;SDS011;53093;55.092;73.476;2022-08-01T09:41:52;13.57;;;2.63;;
63817;SDS011;53093;55.092;73.476;2022-08-01T09:44:41;4.53;;;2.30;;
63817;SDS011;53093;55.092;73.476;2022-08-01T09:47:09;9.63;;;2.42;;
63817;SDS011;53093;55.092;73.476;2022-08-01T09:49:38;6.10;;;2.22;;
63817;SDS011;53093;55.092;73.476;2022-08-01T09:52:14;7.90;;;2.45;;
63817;SDS011;53093;55.092;73.476;2022-08-01T09:54:41;4.50;;;2.20;;
63817;SDS011;53093;55.092;73.476;2022-08-01T09:57:19;3.15;;;2.10;;
63817;SDS011;53093;55.092;73.476;2022-08-01T09:59:47;4.38;;;2.70;;
63817;SDS011;53093;55.092;73.476;2022-08-01T10:02:36;3.25;;;1.90;;
63817;SDS011;53093;55.092;73.476;2022-08-01T10:05:06;4.80;;;1.80;;
63817;SDS011;53093;55.092;73.476;2022-08-01T10:07:33;2.20;;;1.67;;
63817;SDS011;53093;55.092;73.476;2022-08-01T10:10:11;3.97;;;1.80;;
63817;SDS011;53093;55.092;73.476;2022-08-01T10:12:38;4.32;;;1.60;;
63817;SDS011;53093;55.092;73.476;2022-08-01T10:15:06;2.67;;;1.60;;
63817;SDS011;53093;55.092;73.476;2022-08-01T10:17:34;3.85;;;1.70;;
63817;SDS011;53093;55.092;73.476;2022-08-01T10:20:04;4.38;;;1.40;;
63817;SDS011;53093;55.092;73.476;2022-08-01T10:22:32;1.92;;;1.50;;
63817;SDS011;53093;55.092;73.476;2022-08-01T10:25:02;2.97;;;1.58;;
63817;SDS011;53093;55.092;73.476;2022-08-01T10:27:29;5.88;;;1.40;;
63817;SDS011;53093;55.092;73.476;2022-08-01T10:30:00;6.25;;;1.58;;
63817;SDS011;53093;55.092;73.476;2022-08-01T10:32:31;3.03;;;1.23;;
63817;SDS011;53093;55.092;73.476;2022-08-01T10:34:59;1.25;;;1.17;;
63817;SDS011;53093;55.092;73.476;2022-08-01T10:37:26;3.30;;;1.48;;
63817;SDS011;53093;55.092;73.476;2022-08-01T10:39:54;5.85;;;1.50;;
63817;SDS011;53093;55.092;73.476;2022-08-01T10:42:31;4.28;;;1.45;;
63817;SDS011;53093;55.092;73.476;2022-08-01T10:44:58;1.90;;;1.35;;
63817;SDS011;53093;55.092;73.476;2022-08-01T10:47:30;3.33;;;1.70;;
63817;SDS011;53093;55.092;73.476;2022-08-01T10:50:04;3.45;;;1.27;;
63817;SDS011;53093;55.092;73.476;2022-08-01T10:52:33;28.35;;;1.85;;
63817;SDS011;53093;55.092;73.476;2022-08-01T10:55:04;4.90;;;1.55;;
63817;SDS011;53093;55.092;73.476;2022-08-01T10:57:44;3.53;;;1.20;;
63817;SDS011;53093;55.092;73.476;2022-08-01T11:00:20;3.17;;;1.20;;
63817;SDS011;53093;55.092;73.476;2022-08-01T11:03:01;4.43;;;1.45;;
63817;SDS011;53093;55.092;73.476;2022-08-01T11:05:35;7.68;;;1.38;;
63817;SDS011;53093;55.092;73.476;2022-08-01T11:08:23;3.85;;;1.50;;
63817;SDS011;53093;55.092;73.476;2022-08-01T11:10:49;12.95;;;2.00;;
63817;SDS011;53093;55.092;73.476;2022-08-01T11:16:26;3.42;;;0.93;;
63817;SDS011;53093;55.092;73.476;2022-08-01T11:18:53;6.35;;;1.10;;
63817;SDS011;53093;55.092;73.476;2022-08-01T11:21:20;1.77;;;1.40;;
63817;SDS011;53093;55.092;73.476;2022-08-01T11:23:50;1.65;;;1.13;;
63817;SDS011;53093;55.092;73.476;2022-08-01T11:26:20;3.33;;;1.35;;
63817;SDS011;53093;55.092;73.476;2022-08-01T11:29:10;5.78;;;1.30;;
63817;SDS011;53093;55.092;73.476;2022-08-01T11:31:39;4.63;;;1.60;;
63817;SDS011;53093;55.092;73.476;2022-08-01T11:34:06;3.70;;;1.75;;
63817;SDS011;53093;55.092;73.476;2022-08-01T11:36:33;28.60;;;2.85;;
63817;SDS011;53093;55.092;73.476;2022-08-01T11:43:56;6.28;;;1.08;;
63817;SDS011;53093;55.092;73.476;2022-08-01T11:49:30;7.20;;;2.30;;
63817;SDS011;53093;55.092;73.476;2022-08-01T11:54:29;3.97;;;2.72;;
63817;SDS011;53093;55.092;73.476;2022-08-01T11:56:58;5.10;;;3.60;;
63817;SDS011;53093;55.092;73.476;2022-08-01T11:59:25;3.55;;;1.80;;
63817;SDS011;53093;55.092;73.476;2022-08-01T12:02:02;3.53;;;1.20;;
63817;SDS011;53093;55.092;73.476;2022-08-01T12:07:14;6.80;;;3.00;;
63817;SDS011;53093;55.092;73.476;2022-08-01T12:09:41;2.50;;;1.85;;
63817;SDS011;53093;55.092;73.476;2022-08-01T12:12:09;4.32;;;1.38;;
63817;SDS011;53093;55.092;73.476;2022-08-01T12:14:36;2.60;;;1.30;;
63817;SDS011;53093;55.092;73.476;2022-08-01T12:17:03;5.05;;;1.55;;
63817;SDS011;53093;55.092;73.476;2022-08-01T12:19:30;2.17;;;1.05;;
63817;SDS011;53093;55.092;73.476;2022-08-01T12:22:07;2.70;;;1.10;;
63817;SDS011;53093;55.092;73.476;2022-08-01T12:24:44;4.57;;;1.50;;
63817;SDS011;53093;55.092;73.476;2022-08-01T12:27:24;1.88;;;1.30;;
63817;SDS011;53093;55.092;73.476;2022-08-01T12:30:02;2.53;;;1.20;;
63817;SDS011;53093;55.092;73.476;2022-08-01T12:32:31;5.63;;;1.13;;
63817;SDS011;53093;55.092;73.476;2022-08-01T12:35:06;31.10;;;2.40;;
63817;SDS011;53093;55.092;73.476;2022-08-01T12:37:37;6.32;;;1.10;;
63817;SDS011;53093;55.092;73.476;2022-08-01T12:40:11;4.30;;;1.00;;
63817;SDS011;53093;55.092;73.476;2022-08-01T12:42:42;4.65;;;1.50;;
63817;SDS011;53093;55.092;73.476;2022-08-01T12:45:09;10.18;;;3.70;;
63817;SDS011;53093;55.092;73.476;2022-08-01T12:47:37;7.45;;;1.40;;
63817;SDS011;53093;55.092;73.476;2022-08-01T12:50:05;4.65;;;1.25;;
63817;SDS011;53093;55.092;73.476;2022-08-01T12:52:33;4.57;;;1.42;;
63817;SDS011;53093;55.092;73.476;2022-08-01T12:57:30;4.50;;;1.10;;
63817;SDS011;53093;55.092;73.476;2022-08-01T13:00:09;5.28;;;1.00;;
63817;SDS011;53093;55.092;73.476;2022-08-01T13:02:37;3.08;;;1.10;;
63817;SDS011;53093;55.092;73.476;2022-08-01T13:05:04;4.85;;;1.10;;
63817;SDS011;53093;55.092;73.476;2022-08-01T13:07:50;4.25;;;1.20;;
63817;SDS011;53093;55.092;73.476;2022-08-01T13:10:27;5.93;;;1.30;;
63817;SDS011;53093;55.092;73.476;2022-08-01T13:12:55;4.38;;;1.85;;
63817;SDS011;53093;55.092;73.476;2022-08-01T13:15:27;4.47;;;1.95;;
63817;SDS011;53093;55.092;73.476;2022-08-01T13:17:54;5.30;;;1.25;;
63817;SDS011;53093;55.092;73.476;2022-08-01T13:20:25;9.38;;;1.58;;
63817;SDS011;53093;55.092;73.476;2022-08-01T13:22:53;7.00;;;1.30;;
63817;SDS011;53093;55.092;73.476;2022-08-01T13:25:20;4.20;;;1.20;;
63817;SDS011;53093;55.092;73.476;2022-08-01T13:27:47;7.03;;;1.33;;
63817;SDS011;53093;55.092;73.476;2022-08-01T13:30:18;3.38;;;1.30;;
63817;SDS011;53093;55.092;73.476;2022-08-01T13:32:58;7.60;;;1.20;;
63817;SDS011;53093;55.092;73.476;2022-08-01T13:35:35;4.63;;;1.20;;
63817;SDS011;53093;55.092;73.476;2022-08-01T13:38:02;5.68;;;1.10;;
63817;SDS011;53093;55.092;73.476;2022-08-01T13:40:29;8.25;;;1.40;;
63817;SDS011;53093;55.092;73.476;2022-08-01T13:42:56;4.78;;;1.20;;
63817;SDS011;53093;55.092;73.476;2022-08-01T13:45:23;7.55;;;1.33;;
63817;SDS011;53093;55.092;73.476;2022-08-01T13:47:50;6.80;;;1.10;;
63817;SDS011;53093;55.092;73.476;2022-08-01T13:50:17;5.78;;;1.20;;
63817;SDS011;53093;55.092;73.476;2022-08-01T13:52:44;14.98;;;1.50;;
63817;SDS011;53093;55.092;73.476;2022-08-01T13:55:16;6.95;;;1.30;;
63817;SDS011;53093;55.092;73.476;2022-08-01T13:57:43;4.15;;;1.30;;
63817;SDS011;53093;55.092;73.476;2022-08-01T14:00:10;7.22;;;1.20;;
63817;SDS011;53093;55.092;73.476;2022-08-01T14:02:40;3.58;;;1.10;;
63817;SDS011;53093;55.092;73.476;2022-08-01T14:05:07;4.93;;;1.30;;
63817;SDS011;53093;55.092;73.476;2022-08-01T14:07:34;27.90;;;2.42;;
63817;SDS011;53093;55.092;73.476;2022-08-01T14:10:07;4.53;;;1.05;;
63817;SDS011;53093;55.092;73.476;2022-08-01T14:12:34;4.68;;;0.90;;
63817;SDS011;53093;55.092;73.476;2022-08-01T14:15:05;4.05;;;1.20;;
63817;SDS011;53093;55.092;73.476;2022-08-01T14:17:32;10.75;;;1.40;;
63817;SDS011;53093;55.092;73.476;2022-08-01T14:20:04;3.35;;;1.20;;
63817;SDS011;53093;55.092;73.476;2022-08-01T14:22:32;3.97;;;1.30;;
63817;SDS011;53093;55.092;73.476;2022-08-01T14:24:59;1.50;;;1.30;;
63817;SDS011;53093;55.092;73.476;2022-08-01T14:27:26;6.82;;;1.77;;
63817;SDS011;53093;55.092;73.476;2022-08-01T14:29:53;5.25;;;1.25;;
63817;SDS011;53093;55.092;73.476;2022-08-01T14:32:20;13.00;;;1.70;;
63817;SDS011;53093;55.092;73.476;2022-08-01T14:34:47;8.52;;;2.20;;
63817;SDS011;53093;55.092;73.476;2022-08-01T14:37:14;4.00;;;1.38;;
63817;SDS011;53093;55.092;73.476;2022-08-01T14:39:41;8.90;;;1.58;;
63817;SDS011;53093;55.092;73.476;2022-08-01T14:42:08;4.63;;;1.60;;
63817;SDS011;53093;55.092;73.476;2022-08-01T14:44:35;4.07;;;1.30;;
63817;SDS011;53093;55.092;73.476;2022-08-01T14:47:02;7.30;;;1.52;;
63817;SDS011;53093;55.092;73.476;2022-08-01T14:49:29;3.10;;;1.40;;
63817;SDS011;53093;55.092;73.476;2022-08-01T14:51:56;5.05;;;1.10;;
63817;SDS011;53093;55.092;73.476;2022-08-01T14:54:22;44.78;;;3.20;;
63817;SDS011;53093;55.092;73.476;2022-08-01T14:56:49;10.18;;;1.80;;
63817;SDS011;53093;55.092;73.476;2022-08-01T14:59:19;5.40;;;1.50;;
63817;SDS011;53093;55.092;73.476;2022-08-01T15:01:46;7.50;;;1.85;;
63817;SDS011;53093;55.092;73.476;2022-08-01T15:04:13;7.85;;;2.20;;
63817;SDS011;53093;55.092;73.476;2022-08-01T15:06:40;5.47;;;2.78;;